Phoenix, AZ (85034)

9:02 PM MST on December 26, 2014 (GMT -0700)
Phoenix | Change Station
CLOSE
Current Station
Personal Weather Station
Location: Phoenix, AZ
Elevation: 1086 ft
Nearby Weather Stations
Active Advisory: Freeze Warning

Elev 1086 ft 33.41 °N, 111.99 °W | Updated 3 minutes ago

Clear
Clear
38.2 °F
Feels Like 38 °F
N
0.0
Wind Variable Wind from SSW
Gusts 0.0 mph

Today
High -- | Low -- °F
--% Chance of Precip.
Yesterday
High -- | Low -- °F
Precip. -- in
7:30 AM 5:27 PM
Waxing Crescent, 32% visible
Pressure 30.07 in
Visibility 10.0 miles
Clouds Clear
Windchill 38 °F
Dew Point 25 °F
Humidity 60%
Rainfall 0.00 in
Snow Depth Not available.
UV 0 out of 12
Pollen 5.30 out of 12
Air Quality Not available.
Flu Activity Not available.
METAR KPHX 270351Z 00000KT 10SM CLR 09/M04 A3008 RMK AO2 SLP183 T00891044

More Conditions Fewer Conditions

Pressure 30.07 in
Visibility 10.0 miles
Clouds Clear
Windchill 38 °F
Dew Point 25 °F
Humidity 60%
Rainfall 0.00 in
Snow Depth Not available.
UV 0 out of 12
Pollen 5.30 out of 12
Air Quality Not available.
Flu Activity Not available.
METAR KPHX 270351Z 00000KT 10SM CLR 09/M04 A3008 RMK AO2 SLP183 T00891044

More Conditions Fewer Conditions

10-Day Weather Forecast

Almanac

Astronomy

Dec. 26, 2014 Rise Set
Actual Time
Civil Twilight
Nautical Twilight
Astronomical Twilight
Moon
Length of Visible Light
Length of Day
Tomorrow will be .
, % of the Moon is Illuminated

Today's Extremes

State Highs State Lows

Community

WunderPhotos

Upload Photos

1,780,844 photos uploaded!

WunderBlogs® & News

Nearby

Air Quality

  Air Quality AQ Index Pollutant
Not available.

Snow Depth

Station Depth Elevation

Earthquake Activity

City Distance Mag. Time & Date
Minimum magnitude displayed is 2.5.

Coastal Water Temperatures

Place Temperature

Nearby Weather Stations